createdAt,value
2018-05-13T00:02:12.730Z,84.00
2018-05-13T00:05:16.079Z,84.20
2018-05-13T00:08:19.429Z,84.60
2018-05-13T00:11:22.746Z,84.60
2018-05-13T00:14:26.102Z,85.30
2018-05-13T00:17:29.470Z,85.60
2018-05-13T00:20:32.833Z,86.10
2018-05-13T00:23:36.174Z,87.30
2018-05-13T00:26:40.370Z,86.80
2018-05-13T00:29:43.711Z,86.80
2018-05-13T00:32:47.148Z,86.30
2018-05-13T00:35:50.514Z,86.60
2018-05-13T00:38:53.958Z,86.50
2018-05-13T00:41:57.261Z,86.50
2018-05-13T00:45:00.666Z,86.50
2018-05-13T00:48:03.989Z,86.60
2018-05-13T00:51:08.093Z,86.80
2018-05-13T00:54:29.805Z,87.40
2018-05-13T00:57:33.148Z,86.80
2018-05-13T01:00:36.492Z,87.00
2018-05-13T01:03:39.841Z,87.40
2018-05-13T01:06:43.177Z,88.10
2018-05-13T01:09:46.588Z,88.30
2018-05-13T01:12:49.990Z,89.60
2018-05-13T01:15:53.339Z,89.20
2018-05-13T01:18:56.701Z,89.70
2018-05-13T01:22:00.075Z,89.90
2018-05-13T01:25:03.406Z,90.20
2018-05-13T01:28:07.593Z,90.30
2018-05-13T01:31:10.912Z,90.20
2018-05-13T01:34:14.277Z,90.40
2018-05-13T01:37:17.580Z,90.50
2018-05-13T01:40:20.920Z,90.50
2018-05-13T01:43:24.997Z,90.70
2018-05-13T01:46:28.425Z,90.70
2018-05-13T01:49:32.517Z,91.20
2018-05-13T01:52:35.914Z,91.00
2018-05-13T01:55:39.232Z,91.00
2018-05-13T01:58:42.701Z,91.10
2018-05-13T02:01:46.030Z,91.10
2018-05-13T02:04:49.408Z,91.00
2018-05-13T02:07:52.712Z,91.10
2018-05-13T02:10:56.114Z,90.70
2018-05-13T02:13:59.443Z,90.70
2018-05-13T02:17:03.615Z,90.70
2018-05-13T02:20:06.929Z,90.60
2018-05-13T02:23:10.267Z,90.70
2018-05-13T02:26:13.635Z,90.90
2018-05-13T02:29:17.752Z,91.20
2018-05-13T02:32:21.085Z,91.20
2018-05-13T02:35:24.461Z,91.70
2018-05-13T02:38:28.648Z,91.50
2018-05-13T02:41:32.012Z,91.50
2018-05-13T02:44:35.341Z,91.50
2018-05-13T02:47:38.695Z,91.60
2018-05-13T02:50:42.035Z,91.70
2018-05-13T02:53:45.463Z,91.80
2018-05-13T02:56:48.834Z,91.70
2018-05-13T02:59:52.242Z,91.80
2018-05-13T03:02:55.574Z,91.80
2018-05-13T03:05:59.031Z,92.00
2018-05-13T03:09:02.435Z,92.00
2018-05-13T03:12:05.829Z,92.00
2018-05-13T03:15:09.137Z,91.80
2018-05-13T03:18:12.535Z,91.60
2018-05-13T03:21:15.844Z,91.50
2018-05-13T03:24:19.187Z,91.40
2018-05-13T03:27:22.496Z,91.30
2018-05-13T03:30:25.918Z,91.30
2018-05-13T03:33:29.237Z,91.20
2018-05-13T03:36:32.617Z,91.00
2018-05-13T03:39:35.942Z,90.90
2018-05-13T03:42:39.304Z,90.80
2018-05-13T03:45:42.621Z,90.70
2018-05-13T03:48:46.020Z,90.70
2018-05-13T03:51:49.422Z,90.60
2018-05-13T03:54:52.781Z,90.60
2018-05-13T03:57:56.109Z,90.50
2018-05-13T04:00:59.505Z,90.40
2018-05-13T04:04:02.820Z,90.20
2018-05-13T04:07:06.171Z,90.00
2018-05-13T04:14:09.978Z,89.20
2018-05-13T04:17:14.062Z,89.90
2018-05-13T04:20:17.446Z,89.90
2018-05-13T04:23:20.769Z,90.00
2018-05-13T04:26:24.124Z,89.80
2018-05-13T04:29:27.536Z,89.80
2018-05-13T04:32:30.884Z,89.90
2018-05-13T04:35:34.965Z,90.00
2018-05-13T04:38:38.305Z,90.00
2018-05-13T04:41:42.430Z,89.60
2018-05-13T04:44:45.765Z,89.60
2018-05-13T04:47:49.082Z,90.20
2018-05-13T04:50:52.435Z,89.70
2018-05-13T04:53:55.753Z,89.90
2018-05-13T04:56:59.093Z,89.90
2018-05-13T05:00:02.400Z,89.80
2018-05-13T05:03:06.498Z,89.60
2018-05-13T05:06:09.898Z,89.40
2018-05-13T05:09:13.274Z,89.50
2018-05-13T05:12:16.595Z,89.30
2018-05-13T05:15:19.936Z,89.10
2018-05-13T05:18:23.258Z,89.30
2018-05-13T05:21:26.591Z,88.90
2018-05-13T05:24:29.906Z,88.30
2018-05-13T05:27:34.097Z,87.30
2018-05-13T05:30:37.422Z,87.30
2018-05-13T05:33:41.535Z,86.90
2018-05-13T05:36:45.614Z,86.90
2018-05-13T05:39:49.006Z,86.80
2018-05-13T05:42:52.339Z,86.90
2018-05-13T05:45:56.448Z,86.90
2018-05-13T05:48:59.839Z,87.00
2018-05-13T05:52:03.194Z,87.90
2018-05-13T05:55:06.504Z,86.70
2018-05-13T05:58:09.916Z,86.70
2018-05-13T06:01:13.241Z,86.50
2018-05-13T06:04:16.620Z,86.60
2018-05-13T06:07:20.030Z,86.50
2018-05-13T06:10:23.414Z,86.30
2018-05-13T06:13:26.734Z,86.00
2018-05-13T06:16:30.092Z,86.50
2018-05-13T06:19:33.420Z,86.20
2018-05-13T06:22:36.774Z,85.50
2018-05-13T06:25:40.121Z,85.10
2018-05-13T06:28:43.457Z,85.10
2018-05-13T06:31:46.781Z,85.00
2018-05-13T06:47:55.203Z,83.90
2018-05-13T06:50:58.561Z,83.90
2018-05-13T06:54:02.686Z,83.10
2018-05-13T06:57:06.035Z,83.10
2018-05-13T07:00:09.430Z,83.10
2018-05-13T07:03:12.785Z,82.90
2018-05-13T07:06:16.214Z,82.30
2018-05-13T07:09:19.537Z,82.20
2018-05-13T07:12:22.926Z,82.10
2018-05-13T07:15:26.254Z,82.20
2018-05-13T07:18:30.375Z,82.20
2018-05-13T07:21:34.563Z,82.20
2018-05-13T07:24:37.918Z,82.20
2018-05-13T07:27:41.345Z,82.20
2018-05-13T07:30:44.766Z,82.30
2018-05-13T07:33:48.096Z,82.20
2018-05-13T07:36:51.525Z,83.00
2018-05-13T07:39:54.904Z,82.30
2018-05-13T07:42:58.262Z,81.90
2018-05-13T07:46:02.360Z,82.10
2018-05-13T07:49:07.236Z,81.80
2018-05-13T07:52:10.573Z,81.80
2018-05-13T07:55:13.930Z,82.10
2018-05-13T07:58:17.272Z,82.90
2018-05-13T08:01:20.670Z,83.50
2018-05-13T08:04:24.007Z,83.90
2018-05-13T08:07:28.190Z,84.30
2018-05-13T08:10:31.510Z,84.40
2018-05-13T08:13:36.160Z,85.30
2018-05-13T08:16:39.501Z,85.30
2018-05-13T08:19:42.897Z,85.80
2018-05-13T08:22:46.217Z,86.40
2018-05-13T08:25:49.604Z,86.40
2018-05-13T08:28:52.926Z,87.00
2018-05-13T08:31:57.028Z,87.40
2018-05-13T08:35:00.417Z,87.40
2018-05-13T08:38:03.769Z,88.20
2018-05-13T08:41:07.209Z,87.70
2018-05-13T08:44:10.553Z,88.80
2018-05-13T08:47:13.861Z,88.30
2018-05-13T08:50:17.302Z,88.50
2018-05-13T08:53:20.625Z,88.80
2018-05-13T08:56:24.831Z,89.60
2018-05-13T08:59:28.921Z,88.70
2018-05-13T09:02:32.350Z,89.20
2018-05-13T09:05:36.459Z,88.70
2018-05-13T09:08:39.838Z,88.70
2018-05-13T09:11:43.149Z,88.60
2018-05-13T09:14:46.545Z,88.50
2018-05-13T09:17:49.933Z,88.60
2018-05-13T09:20:53.327Z,88.70
2018-05-13T09:23:56.629Z,88.70
2018-05-13T09:27:01.553Z,87.10
2018-05-13T09:30:04.875Z,87.10
2018-05-13T09:33:08.355Z,86.80
2018-05-13T09:36:12.365Z,86.90
2018-05-13T09:39:15.767Z,86.70
2018-05-13T09:42:19.111Z,87.10
2018-05-13T09:45:23.361Z,87.00
2018-05-13T09:48:26.778Z,87.00
2018-05-13T09:51:30.133Z,87.40
2018-05-13T09:54:33.495Z,87.10
2018-05-13T09:57:36.903Z,87.00
2018-05-13T10:00:40.280Z,86.50
2018-05-13T10:03:44.432Z,86.80
2018-05-13T10:06:47.800Z,86.70
2018-05-13T10:09:51.201Z,87.00
2018-05-13T10:12:54.591Z,87.00
2018-05-13T10:15:58.392Z,87.10
2018-05-13T10:19:01.806Z,86.50
2018-05-13T10:22:05.206Z,86.50
2018-05-13T10:25:08.643Z,86.10
2018-05-13T10:28:11.973Z,85.10
2018-05-13T10:31:15.402Z,85.90
2018-05-13T10:34:18.801Z,86.20
2018-05-13T10:37:22.750Z,85.80
2018-05-13T10:40:26.116Z,85.20
2018-05-13T10:43:29.445Z,85.70
2018-05-13T10:46:33.571Z,85.70
2018-05-13T10:49:36.904Z,85.70
2018-05-13T10:52:40.273Z,86.10
2018-05-13T10:55:43.601Z,86.20
2018-05-13T10:58:47.008Z,86.00
2018-05-13T11:01:50.368Z,85.20
2018-05-13T11:04:53.798Z,83.50
2018-05-13T11:07:57.921Z,82.30
2018-05-13T11:11:01.285Z,82.30
2018-05-13T11:14:04.621Z,81.90
2018-05-13T11:17:08.051Z,82.40
2018-05-13T11:20:12.167Z,81.80
2018-05-13T11:23:16.374Z,81.00
2018-05-13T11:26:19.705Z,81.00
2018-05-13T11:29:23.196Z,80.80
2018-05-13T11:32:27.374Z,79.50
2018-05-13T11:35:30.760Z,79.50
2018-05-13T11:38:34.178Z,78.90
2018-05-13T11:41:37.526Z,78.70
2018-05-13T11:44:40.879Z,78.40
2018-05-13T11:47:44.322Z,79.00
2018-05-13T11:50:47.646Z,78.90
2018-05-13T11:53:51.004Z,78.20
2018-05-13T11:56:55.186Z,77.90
2018-05-13T11:59:59.411Z,77.90
2018-05-13T12:03:02.790Z,78.10
2018-05-13T12:06:06.215Z,77.90
2018-05-13T12:09:09.608Z,76.60
2018-05-13T12:12:13.814Z,74.60
2018-05-13T12:15:17.220Z,74.50
2018-05-13T12:18:20.548Z,74.70
2018-05-13T12:21:24.713Z,75.60
2018-05-13T12:24:28.130Z,75.50
2018-05-13T12:27:31.541Z,74.70
2018-05-13T12:30:35.747Z,75.30
2018-05-13T12:33:39.093Z,75.20
2018-05-13T12:36:42.439Z,74.40
2018-05-13T12:39:45.762Z,74.00
2018-05-13T12:42:49.957Z,73.60
2018-05-13T12:45:53.337Z,73.70
2018-05-13T12:48:56.799Z,74.00
2018-05-13T12:52:00.124Z,73.70
2018-05-13T12:55:03.483Z,73.50
2018-05-13T12:58:06.825Z,73.10
2018-05-13T13:01:10.182Z,72.20
2018-05-13T13:04:13.531Z,71.80
2018-05-13T13:07:16.935Z,71.40
2018-05-13T13:10:20.750Z,70.40
2018-05-13T13:13:24.186Z,70.30
2018-05-13T13:16:27.523Z,71.20
2018-05-13T13:19:30.872Z,71.00
2018-05-13T13:22:34.222Z,70.60
2018-05-13T13:25:37.570Z,70.30
2018-05-13T13:28:40.892Z,68.60
2018-05-13T13:31:44.250Z,69.40
2018-05-13T13:34:48.342Z,68.80
2018-05-13T13:37:53.257Z,69.20
2018-05-13T13:40:56.596Z,69.20
2018-05-13T13:44:00.780Z,68.00
2018-05-13T13:47:04.101Z,67.90
2018-05-13T13:50:08.243Z,68.20
2018-05-13T13:53:11.560Z,68.10
2018-05-13T13:56:14.948Z,68.60
2018-05-13T13:59:18.903Z,67.90
2018-05-13T14:02:22.241Z,68.20
2018-05-13T14:05:25.581Z,67.10
2018-05-13T14:08:29.003Z,67.20
2018-05-13T14:11:32.388Z,66.80
2018-05-13T14:14:36.507Z,67.60
2018-05-13T14:17:39.897Z,66.90
2018-05-13T14:20:43.348Z,66.50
2018-05-13T14:23:46.592Z,67.10
2018-05-13T14:26:50.354Z,66.10
2018-05-13T14:29:53.789Z,65.60
2018-05-13T14:32:57.760Z,65.00
2018-05-13T14:36:01.855Z,64.90
2018-05-13T14:39:12.124Z,63.90
2018-05-13T14:42:10.146Z,63.90
2018-05-13T14:45:13.507Z,63.90
2018-05-13T14:48:16.950Z,64.00
2018-05-13T14:51:20.341Z,63.00
2018-05-13T14:54:23.659Z,62.20
2018-05-13T14:57:27.009Z,61.30
2018-05-13T15:00:30.333Z,62.50
2018-05-13T15:03:33.725Z,61.60
2018-05-13T15:06:37.041Z,60.00
2018-05-13T15:09:40.394Z,59.90
2018-05-13T15:12:43.834Z,60.00
2018-05-13T15:15:47.189Z,59.50
2018-05-13T15:18:50.578Z,59.30
2018-05-13T15:21:54.035Z,58.60
2018-05-13T15:24:57.424Z,57.70
2018-05-13T15:28:00.819Z,56.70
2018-05-13T15:31:04.142Z,56.60
2018-05-13T15:34:08.316Z,54.40
2018-05-13T15:37:11.753Z,54.40
2018-05-13T15:40:15.035Z,54.30
2018-05-13T15:43:18.508Z,53.90
2018-05-13T15:46:21.809Z,53.40
2018-05-13T15:49:25.199Z,53.20
2018-05-13T15:52:28.542Z,52.90
2018-05-13T15:55:32.605Z,52.40
2018-05-13T15:58:35.959Z,52.40
2018-05-13T16:01:39.281Z,52.00
2018-05-13T16:04:42.629Z,52.40
2018-05-13T16:07:46.003Z,51.70
2018-05-13T16:10:49.353Z,51.50
2018-05-13T16:13:52.698Z,52.10
2018-05-13T16:16:56.104Z,51.30
2018-05-13T16:19:59.543Z,51.20
2018-05-13T16:23:02.947Z,51.30
2018-05-13T16:26:06.268Z,51.30
2018-05-13T16:29:09.674Z,51.30
2018-05-13T16:32:13.073Z,51.10
2018-05-13T16:35:16.476Z,51.30
2018-05-13T16:38:19.888Z,51.30
2018-05-13T16:41:23.227Z,50.70
2018-05-13T16:44:26.591Z,51.20
2018-05-13T16:47:29.962Z,50.50
2018-05-13T16:50:33.369Z,50.70
2018-05-13T16:53:36.712Z,50.50
2018-05-13T16:56:40.060Z,50.50
2018-05-13T16:59:43.479Z,51.00
2018-05-13T17:02:47.673Z,51.30
2018-05-13T17:05:51.027Z,51.10
2018-05-13T17:08:54.371Z,51.60
2018-05-13T17:11:57.787Z,52.20
2018-05-13T17:15:01.870Z,52.90
2018-05-13T17:18:05.266Z,52.30
2018-05-13T17:21:08.674Z,54.20
2018-05-13T17:24:12.034Z,55.40
2018-05-13T17:27:15.362Z,56.20
2018-05-13T17:30:18.715Z,56.50
2018-05-13T17:33:22.050Z,57.10
2018-05-13T17:36:25.407Z,57.50
2018-05-13T17:39:28.847Z,57.60
2018-05-13T17:42:32.978Z,58.90
2018-05-13T17:45:36.326Z,58.90
2018-05-13T17:48:39.671Z,59.30
2018-05-13T17:51:43.070Z,59.60
2018-05-13T17:54:46.411Z,59.90
2018-05-13T17:57:49.734Z,59.60
2018-05-13T18:00:53.100Z,59.80
2018-05-13T18:03:56.431Z,59.80
2018-05-13T18:06:59.823Z,60.10
2018-05-13T18:10:03.863Z,60.40
2018-05-13T18:13:07.236Z,60.40
2018-05-13T18:16:10.564Z,60.60
2018-05-13T18:19:14.678Z,61.60
2018-05-13T18:22:18.055Z,61.60
2018-05-13T18:25:21.449Z,61.00
2018-05-13T18:28:24.772Z,61.20
2018-05-13T18:31:28.133Z,61.30
2018-05-13T18:34:31.465Z,61.30
2018-05-13T18:37:34.849Z,61.20
2018-05-13T18:40:38.170Z,61.30
2018-05-13T18:43:42.357Z,60.80
2018-05-13T18:46:45.761Z,60.80
2018-05-13T18:49:49.122Z,61.70
2018-05-13T18:52:52.438Z,60.90
2018-05-13T18:55:55.794Z,60.80
2018-05-13T18:58:59.204Z,60.80
2018-05-13T19:02:02.518Z,61.40
2018-05-13T19:05:05.844Z,61.90
2018-05-13T19:08:09.176Z,62.30
2018-05-13T19:11:12.502Z,63.40
2018-05-13T19:14:15.858Z,63.10
2018-05-13T19:17:19.929Z,63.40
2018-05-13T19:20:23.342Z,63.30
2018-05-13T19:23:26.671Z,63.00
2018-05-13T19:26:30.139Z,63.10
2018-05-13T19:29:33.465Z,62.90
2018-05-13T19:32:37.615Z,63.10
2018-05-13T19:35:41.040Z,63.10
2018-05-13T19:38:44.426Z,63.70
2018-05-13T19:41:47.756Z,63.80
2018-05-13T19:44:51.874Z,65.00
2018-05-13T19:47:56.064Z,65.60
2018-05-13T19:50:59.457Z,65.50
2018-05-13T19:54:02.776Z,65.70
2018-05-13T19:57:06.922Z,66.10
2018-05-13T20:00:10.302Z,65.90
2018-05-13T20:03:14.547Z,66.30
2018-05-13T20:06:17.774Z,66.30
2018-05-13T20:09:21.266Z,66.60
2018-05-13T20:12:24.573Z,66.70
2018-05-13T20:15:28.085Z,67.10
2018-05-13T20:18:32.187Z,67.20
2018-05-13T20:21:35.604Z,67.20
2018-05-13T20:24:38.913Z,67.50
2018-05-13T20:27:43.023Z,68.30
2018-05-13T20:30:47.223Z,68.30
2018-05-13T20:33:50.614Z,68.30
2018-05-13T20:36:54.014Z,68.50
2018-05-13T20:39:58.232Z,69.00
2018-05-13T20:43:01.559Z,69.00
2018-05-13T20:46:05.734Z,69.10
2018-05-13T20:49:09.059Z,69.10
2018-05-13T20:52:13.184Z,69.20
2018-05-13T20:55:17.278Z,69.30
2018-05-13T20:58:20.653Z,69.30
2018-05-13T21:01:24.079Z,69.60
2018-05-13T21:04:27.467Z,70.00
2018-05-13T21:07:30.778Z,70.20
2018-05-13T21:10:34.966Z,71.10
2018-05-13T21:13:38.285Z,70.90
2018-05-13T21:16:42.424Z,71.70
2018-05-13T21:19:45.764Z,71.60
2018-05-13T21:22:49.107Z,72.00
2018-05-13T21:25:53.298Z,72.80
2018-05-13T21:28:56.676Z,72.80
2018-05-13T21:32:00.077Z,73.20
2018-05-13T21:35:03.430Z,73.20
2018-05-13T21:38:06.762Z,73.30
2018-05-13T21:41:10.109Z,73.50
2018-05-13T21:44:14.280Z,73.50
2018-05-13T21:47:17.642Z,73.40
2018-05-13T21:50:20.985Z,73.50
2018-05-13T21:53:24.322Z,73.40
2018-05-13T21:56:27.639Z,73.70
2018-05-13T21:59:31.108Z,73.70
2018-05-13T22:02:35.190Z,74.30
2018-05-13T22:05:38.763Z,74.20
2018-05-13T22:08:42.103Z,75.50
2018-05-13T22:11:45.761Z,75.10
2018-05-13T22:14:49.267Z,75.10
2018-05-13T22:17:53.259Z,76.30
2018-05-13T22:20:56.751Z,75.80
2018-05-13T22:24:00.969Z,76.00
2018-05-13T22:27:04.585Z,76.50
2018-05-13T22:30:08.412Z,77.60
2018-05-13T22:33:11.842Z,77.10
2018-05-13T22:36:15.204Z,77.00
2018-05-13T22:39:18.678Z,77.10
2018-05-13T22:42:22.040Z,77.00
2018-05-13T22:45:25.429Z,76.80
2018-05-13T22:48:29.035Z,76.60
2018-05-13T22:51:32.431Z,76.50
2018-05-13T22:54:35.789Z,76.40
2018-05-13T22:57:39.100Z,76.40
2018-05-13T23:00:42.498Z,76.20
2018-05-13T23:03:45.901Z,76.20
2018-05-13T23:06:49.195Z,76.10
2018-05-13T23:09:52.595Z,76.10
2018-05-13T23:12:56.096Z,76.10
2018-05-13T23:15:59.484Z,76.10
2018-05-13T23:19:02.834Z,76.20
2018-05-13T23:22:06.177Z,76.40
2018-05-13T23:25:09.521Z,76.60
2018-05-13T23:28:13.589Z,77.10
2018-05-13T23:31:16.929Z,77.00
2018-05-13T23:34:21.005Z,77.30
2018-05-13T23:37:24.353Z,77.30
2018-05-13T23:40:27.706Z,77.50
2018-05-13T23:43:31.102Z,77.80
2018-05-13T23:46:34.368Z,77.40
2018-05-13T23:49:37.777Z,77.30
2018-05-13T23:52:41.174Z,77.40
2018-05-13T23:55:44.573Z,77.40
2018-05-13T23:58:47.894Z,77.50
